createdAt,value
2022-12-03T00:01:01.177Z,4.44
2022-12-03T00:03:28.087Z,4.42
2022-12-03T00:05:54.949Z,4.51
2022-12-03T00:08:21.424Z,4.73
2022-12-03T00:10:48.696Z,4.82
2022-12-03T00:13:15.275Z,4.73
2022-12-03T00:15:41.814Z,4.66
2022-12-03T00:18:08.460Z,4.52
2022-12-03T00:20:35.121Z,4.53
2022-12-03T00:23:01.610Z,4.46
2022-12-03T00:25:28.323Z,4.34
2022-12-03T00:27:54.877Z,4.30
2022-12-03T00:30:21.391Z,4.02
2022-12-03T00:32:48.056Z,3.87
2022-12-03T00:35:14.561Z,3.88
2022-12-03T00:37:41.052Z,3.88
2022-12-03T00:40:08.236Z,3.79
2022-12-03T00:42:34.721Z,4.05
2022-12-03T00:45:01.579Z,4.32
2022-12-03T00:47:28.402Z,4.43
2022-12-03T00:49:57.693Z,4.33
2022-12-03T00:52:24.190Z,4.50
2022-12-03T00:54:50.910Z,4.38
2022-12-03T00:57:17.619Z,4.26
2022-12-03T00:59:44.116Z,4.40
2022-12-03T01:02:10.728Z,4.18
2022-12-03T01:04:37.347Z,3.91
2022-12-03T01:07:03.896Z,3.60
2022-12-03T01:09:30.421Z,3.70
2022-12-03T01:11:57.083Z,3.65
2022-12-03T01:14:23.629Z,3.79
2022-12-03T01:16:50.154Z,3.70
2022-12-03T01:19:17.128Z,3.75
2022-12-03T01:21:49.505Z,3.70
2022-12-03T01:24:16.898Z,3.87
2022-12-03T01:26:43.559Z,3.93
2022-12-03T01:29:10.127Z,3.91
2022-12-03T01:31:37.070Z,3.85
2022-12-03T01:34:03.896Z,3.71
2022-12-03T01:36:30.381Z,3.51
2022-12-03T01:38:56.892Z,3.13
2022-12-03T01:41:24.970Z,2.96
2022-12-03T01:43:52.473Z,2.72
2022-12-03T01:46:22.288Z,2.69
2022-12-03T01:48:51.180Z,2.41
2022-12-03T01:51:18.056Z,2.51
2022-12-03T01:53:44.623Z,2.45
2022-12-03T01:56:14.273Z,2.34
2022-12-03T01:58:41.203Z,2.22
2022-12-03T02:01:13.470Z,2.35
2022-12-03T02:03:40.127Z,2.27
2022-12-03T02:06:13.388Z,2.32
2022-12-03T02:08:39.853Z,2.33
2022-12-03T02:11:18.611Z,2.20
2022-12-03T02:13:45.464Z,2.15
2022-12-03T02:16:12.104Z,2.13
2022-12-03T02:18:38.647Z,2.18
2022-12-03T02:21:13.906Z,2.18
2022-12-03T02:24:03.470Z,2.07
2022-12-03T02:26:29.989Z,2.01
2022-12-03T02:28:56.848Z,2.04
2022-12-03T02:31:23.876Z,1.90
2022-12-03T02:33:50.783Z,1.94
2022-12-03T02:36:17.326Z,1.99
2022-12-03T02:38:44.785Z,1.98
2022-12-03T02:41:13.001Z,1.95
2022-12-03T02:43:39.573Z,1.98
2022-12-03T02:46:07.843Z,1.84
2022-12-03T02:48:38.852Z,1.85
2022-12-03T02:51:09.580Z,1.79
2022-12-03T02:53:39.054Z,1.68
2022-12-03T02:56:08.435Z,1.56
2022-12-03T02:58:35.173Z,1.58
2022-12-03T03:01:02.569Z,1.57
2022-12-03T03:03:29.732Z,1.53
2022-12-03T03:05:56.888Z,1.63
2022-12-03T03:08:24.653Z,1.51
2022-12-03T03:10:51.385Z,1.41
2022-12-03T03:13:20.809Z,1.39
2022-12-03T03:15:47.717Z,1.41
2022-12-03T03:18:16.920Z,1.38
2022-12-03T03:20:44.133Z,1.29
2022-12-03T03:23:19.406Z,1.28
2022-12-03T03:25:49.906Z,1.25
2022-12-03T03:28:16.500Z,1.18
2022-12-03T03:30:43.909Z,1.16
2022-12-03T03:33:11.370Z,1.17
2022-12-03T03:35:38.317Z,1.18
2022-12-03T03:38:05.876Z,1.23
2022-12-03T03:40:32.570Z,1.25
2022-12-03T03:43:00.248Z,1.23
2022-12-03T03:45:29.366Z,1.18
2022-12-03T03:47:57.767Z,1.22
2022-12-03T03:50:24.770Z,1.23
2022-12-03T03:52:51.549Z,1.21
2022-12-03T03:55:18.232Z,1.23
2022-12-03T03:57:45.021Z,1.20
2022-12-03T04:00:12.089Z,1.32
2022-12-03T04:02:38.679Z,1.32
2022-12-03T04:05:05.880Z,1.19
2022-12-03T04:07:32.468Z,1.21
2022-12-03T04:09:58.986Z,1.16
2022-12-03T04:12:37.390Z,1.19
2022-12-03T04:15:24.802Z,1.13
2022-12-03T04:18:06.066Z,1.17
2022-12-03T04:20:32.701Z,1.08
2022-12-03T04:22:59.192Z,1.14
2022-12-03T04:25:25.704Z,1.18
2022-12-03T04:27:52.181Z,1.18
2022-12-03T04:30:19.932Z,1.24
2022-12-03T04:32:46.516Z,1.23
2022-12-03T04:35:13.055Z,1.30
2022-12-03T04:37:39.680Z,1.18
2022-12-03T04:40:06.896Z,1.20
2022-12-03T04:42:33.346Z,1.23
2022-12-03T04:44:59.837Z,1.30
2022-12-03T04:47:26.330Z,1.13
2022-12-03T04:49:52.897Z,1.15
2022-12-03T04:52:20.549Z,1.13
2022-12-03T04:54:47.205Z,1.09
2022-12-03T04:57:13.710Z,1.11
2022-12-03T04:59:40.443Z,1.12
2022-12-03T05:02:07.437Z,1.10
2022-12-03T05:04:34.203Z,1.08
2022-12-03T05:07:01.941Z,1.10
2022-12-03T05:09:28.508Z,1.13
2022-12-03T05:11:55.041Z,1.06
2022-12-03T05:14:21.605Z,1.08
2022-12-03T05:16:48.185Z,1.06
2022-12-03T05:19:14.721Z,1.15
2022-12-03T05:21:41.208Z,1.19
2022-12-03T05:24:07.749Z,1.21
2022-12-03T05:26:34.303Z,1.25
2022-12-03T05:29:00.781Z,1.28
2022-12-03T05:31:27.349Z,1.46
2022-12-03T05:33:53.934Z,1.43
2022-12-03T05:36:20.453Z,1.48
2022-12-03T05:38:47.037Z,1.40
2022-12-03T05:41:14.625Z,1.42
2022-12-03T05:43:41.205Z,1.73
2022-12-03T05:46:07.911Z,1.98
2022-12-03T05:48:34.439Z,2.16
2022-12-03T05:51:00.902Z,1.90
2022-12-03T05:53:27.387Z,1.93
2022-12-03T05:55:53.858Z,1.97
2022-12-03T05:58:20.373Z,1.95
2022-12-03T06:00:46.869Z,2.26
2022-12-03T06:03:13.511Z,2.35
2022-12-03T06:05:40.161Z,2.44
2022-12-03T06:08:06.976Z,2.72
2022-12-03T06:10:33.599Z,2.88
2022-12-03T06:13:00.100Z,3.03
2022-12-03T06:15:26.914Z,3.25
2022-12-03T06:17:53.430Z,3.31
2022-12-03T06:20:20.872Z,3.30
2022-12-03T06:22:47.890Z,3.24
2022-12-03T06:25:15.556Z,2.82
2022-12-03T06:27:42.264Z,2.76
2022-12-03T06:30:11.033Z,2.49
2022-12-03T06:32:37.669Z,2.43
2022-12-03T06:35:04.615Z,2.14
2022-12-03T06:37:31.092Z,2.03
2022-12-03T06:39:57.590Z,1.91
2022-12-03T06:42:24.076Z,1.90
2022-12-03T06:44:51.779Z,1.85
2022-12-03T06:47:18.498Z,2.07
2022-12-03T06:49:45.058Z,2.34
2022-12-03T06:52:11.544Z,2.35
2022-12-03T06:54:38.796Z,2.50
2022-12-03T06:57:05.537Z,2.64
2022-12-03T06:59:32.055Z,2.60
2022-12-03T07:01:59.927Z,2.51
2022-12-03T07:04:26.987Z,2.55
2022-12-03T07:06:53.589Z,2.60
2022-12-03T07:09:20.320Z,2.71
2022-12-03T07:11:47.001Z,2.76
2022-12-03T07:14:13.523Z,2.82
2022-12-03T07:16:40.583Z,2.96
2022-12-03T07:19:07.349Z,2.99
2022-12-03T07:21:34.254Z,3.08
2022-12-03T07:24:01.166Z,2.83
2022-12-03T07:26:27.745Z,2.53
2022-12-03T07:28:54.222Z,2.39
2022-12-03T07:31:21.284Z,2.49
2022-12-03T07:33:47.808Z,2.70
2022-12-03T07:36:14.732Z,3.03
2022-12-03T07:38:42.359Z,3.22
2022-12-03T07:41:08.867Z,3.22
2022-12-03T07:43:35.828Z,3.40
2022-12-03T07:46:02.452Z,2.93
2022-12-03T07:48:28.977Z,2.79
2022-12-03T07:50:55.468Z,2.82
2022-12-03T07:53:22.535Z,3.00
2022-12-03T07:55:49.558Z,3.10
2022-12-03T07:58:16.146Z,3.19
2022-12-03T08:00:42.769Z,3.27
2022-12-03T08:03:09.319Z,3.51
2022-12-03T08:05:37.584Z,3.61
2022-12-03T08:08:04.217Z,3.79
2022-12-03T08:10:30.887Z,4.06
2022-12-03T08:12:59.294Z,4.30
2022-12-03T08:15:30.128Z,4.42
2022-12-03T08:18:01.066Z,4.22
2022-12-03T08:20:31.253Z,4.01
2022-12-03T08:22:57.754Z,3.99
2022-12-03T08:25:28.579Z,3.84
2022-12-03T08:28:00.728Z,4.06
2022-12-03T08:30:29.218Z,3.86
2022-12-03T08:32:58.109Z,3.92
2022-12-03T08:35:28.097Z,3.56
2022-12-03T08:37:59.935Z,3.37
2022-12-03T08:40:34.045Z,3.25
2022-12-03T08:43:00.765Z,3.24
2022-12-03T08:45:30.832Z,3.42
2022-12-03T08:48:12.104Z,3.72
2022-12-03T08:50:40.555Z,3.98
2022-12-03T08:53:33.203Z,4.43
2022-12-03T08:56:20.464Z,4.33
2022-12-03T08:58:48.941Z,4.10
2022-12-03T09:01:27.494Z,4.28
2022-12-03T09:03:58.004Z,4.53
2022-12-03T09:06:24.808Z,4.80
2022-12-03T09:08:51.711Z,5.02
2022-12-03T09:11:18.361Z,5.21
2022-12-03T09:13:44.950Z,5.11
2022-12-03T09:16:11.505Z,5.49
2022-12-03T09:18:38.089Z,5.80
2022-12-03T09:21:04.793Z,5.57
2022-12-03T09:23:31.316Z,5.40
2022-12-03T09:25:57.885Z,5.21
2022-12-03T09:28:24.569Z,4.83
2022-12-03T09:30:51.057Z,5.04
2022-12-03T09:33:17.579Z,5.54
2022-12-03T09:35:44.061Z,5.26
2022-12-03T09:38:10.904Z,5.09
2022-12-03T09:40:37.929Z,5.26
2022-12-03T09:43:05.004Z,5.58
2022-12-03T09:45:32.255Z,5.16
2022-12-03T09:48:00.777Z,4.88
2022-12-03T09:50:27.648Z,4.77
2022-12-03T09:52:57.317Z,4.83
2022-12-03T09:55:26.433Z,4.40
2022-12-03T09:57:54.335Z,4.38
2022-12-03T10:00:25.959Z,4.68
2022-12-03T10:02:55.374Z,4.82
2022-12-03T10:05:25.127Z,5.13
2022-12-03T10:07:52.399Z,5.08
2022-12-03T10:10:23.757Z,5.25
2022-12-03T10:12:54.806Z,4.99
2022-12-03T10:15:23.453Z,4.58
2022-12-03T10:17:52.649Z,4.74
2022-12-03T10:20:20.549Z,5.16
2022-12-03T10:22:47.212Z,5.32
2022-12-03T10:25:19.676Z,5.38
2022-12-03T10:28:00.475Z,5.80
2022-12-03T10:30:28.159Z,6.02
2022-12-03T10:32:56.587Z,6.10
2022-12-03T10:35:44.779Z,6.35
2022-12-03T10:38:17.618Z,6.09
2022-12-03T10:40:44.143Z,5.68
2022-12-03T10:43:18.225Z,5.72
2022-12-03T10:46:05.073Z,5.99
2022-12-03T10:48:31.742Z,6.30
2022-12-03T10:51:01.318Z,6.46
2022-12-03T10:53:33.203Z,6.62
2022-12-03T10:56:01.836Z,6.48
2022-12-03T10:58:35.952Z,6.38
2022-12-03T11:01:05.767Z,6.16
2022-12-03T11:03:36.008Z,6.21
2022-12-03T11:06:03.328Z,6.21
2022-12-03T11:08:35.440Z,5.76
2022-12-03T11:11:07.851Z,5.69
2022-12-03T11:13:34.283Z,5.87
2022-12-03T11:16:02.350Z,5.90
2022-12-03T11:18:38.160Z,5.99
2022-12-03T11:21:13.194Z,6.14
2022-12-03T11:23:46.076Z,6.60
2022-12-03T11:26:28.535Z,6.97
2022-12-03T11:28:56.596Z,6.68
2022-12-03T11:31:36.823Z,6.73
2022-12-03T11:34:18.343Z,6.77
2022-12-03T11:37:09.668Z,6.46
2022-12-03T11:39:51.494Z,6.37
2022-12-03T11:42:21.306Z,6.28
2022-12-03T11:45:10.469Z,6.71
2022-12-03T11:47:37.954Z,6.60
2022-12-03T11:50:40.302Z,6.72
2022-12-03T11:53:22.427Z,7.12
2022-12-03T11:56:04.856Z,6.40
2022-12-03T11:58:32.221Z,6.75
2022-12-03T12:01:00.811Z,6.60
2022-12-03T12:03:34.989Z,6.83
2022-12-03T12:06:16.368Z,6.70
2022-12-03T12:08:54.396Z,6.54
2022-12-03T12:11:28.256Z,6.47
2022-12-03T12:14:00.205Z,6.29
2022-12-03T12:16:53.254Z,6.20
2022-12-03T12:19:42.256Z,6.51
2022-12-03T12:22:13.620Z,6.54
2022-12-03T12:24:40.117Z,6.54
2022-12-03T12:27:09.223Z,6.62
2022-12-03T12:29:38.531Z,6.21
2022-12-03T12:32:12.913Z,5.84
2022-12-03T12:34:41.520Z,5.64
2022-12-03T12:37:22.382Z,5.76
2022-12-03T12:39:51.031Z,5.38
2022-12-03T12:42:37.014Z,5.46
2022-12-03T12:45:14.686Z,5.29
2022-12-03T12:47:48.748Z,5.29
2022-12-03T12:50:17.042Z,5.40
2022-12-03T12:52:55.206Z,5.75
2022-12-03T12:55:22.773Z,5.43
2022-12-03T12:57:50.390Z,5.17
2022-12-03T13:00:23.138Z,5.25
2022-12-03T13:02:59.026Z,5.16
2022-12-03T13:05:25.914Z,4.98
2022-12-03T13:07:52.970Z,5.05
2022-12-03T13:10:38.458Z,5.41
2022-12-03T13:13:31.708Z,5.83
2022-12-03T13:16:18.564Z,6.04
2022-12-03T13:18:47.546Z,5.60
2022-12-03T13:21:38.705Z,5.37
2022-12-03T13:24:29.385Z,5.26
2022-12-03T13:26:56.816Z,5.42
2022-12-03T13:29:24.049Z,5.54
2022-12-03T13:31:59.703Z,5.31
2022-12-03T13:34:31.870Z,4.97
2022-12-03T13:36:59.983Z,4.60
2022-12-03T13:39:32.298Z,4.17
2022-12-03T13:42:08.496Z,4.35
2022-12-03T13:44:41.578Z,4.18
2022-12-03T13:47:18.917Z,3.71
2022-12-03T13:49:50.809Z,3.95
2022-12-03T13:52:20.938Z,4.13
2022-12-03T13:54:52.610Z,4.40
2022-12-03T13:57:19.469Z,4.37
2022-12-03T13:59:46.012Z,4.13
2022-12-03T14:02:12.547Z,4.43
2022-12-03T14:04:40.347Z,4.13
2022-12-03T14:07:07.228Z,3.96
2022-12-03T14:09:33.759Z,3.96
2022-12-03T14:12:00.260Z,3.98
2022-12-03T14:14:26.782Z,4.14
2022-12-03T14:16:59.529Z,4.21
2022-12-03T14:19:27.349Z,4.25
2022-12-03T14:21:57.185Z,4.08
2022-12-03T14:24:23.987Z,4.12
2022-12-03T14:26:50.537Z,3.99
2022-12-03T14:29:17.138Z,3.89
2022-12-03T14:31:44.086Z,3.97
2022-12-03T14:34:11.828Z,3.67
2022-12-03T14:36:38.386Z,3.60
2022-12-03T14:39:05.370Z,3.51
2022-12-03T14:41:48.226Z,3.42
2022-12-03T14:44:14.755Z,3.42
2022-12-03T14:46:41.404Z,3.19
2022-12-03T14:49:08.196Z,3.18
2022-12-03T14:51:34.701Z,3.11
2022-12-03T14:54:01.360Z,3.08
2022-12-03T14:56:27.857Z,3.32
2022-12-03T14:58:54.386Z,3.09
2022-12-03T15:01:21.288Z,3.25
2022-12-03T15:03:48.402Z,3.26
2022-12-03T15:06:14.962Z,3.01
2022-12-03T15:08:41.648Z,3.12
2022-12-03T15:11:08.433Z,3.01
2022-12-03T15:13:34.994Z,3.05
2022-12-03T15:16:01.812Z,3.09
2022-12-03T15:18:28.552Z,3.11
2022-12-03T15:20:55.071Z,3.08
2022-12-03T15:23:21.589Z,3.12
2022-12-03T15:25:48.157Z,3.19
2022-12-03T15:28:14.665Z,3.07
2022-12-03T15:30:41.203Z,3.04
2022-12-03T15:33:07.795Z,2.90
2022-12-03T15:35:34.600Z,2.62
2022-12-03T15:38:01.089Z,2.69
2022-12-03T15:40:27.601Z,2.82
2022-12-03T15:42:54.173Z,2.67
2022-12-03T15:45:21.425Z,2.56
2022-12-03T15:47:48.071Z,2.65
2022-12-03T15:50:17.947Z,2.69
2022-12-03T15:52:44.508Z,2.48
2022-12-03T15:55:11.635Z,2.43
2022-12-03T15:57:38.176Z,2.38
2022-12-03T16:00:05.957Z,2.25
2022-12-03T16:02:32.731Z,2.44
2022-12-03T16:05:04.571Z,2.60
2022-12-03T16:07:31.424Z,2.74
2022-12-03T16:09:58.098Z,2.57
2022-12-03T16:12:24.887Z,2.72
2022-12-03T16:14:51.535Z,2.63
2022-12-03T16:17:18.022Z,2.52
2022-12-03T16:19:44.641Z,2.57
2022-12-03T16:22:11.381Z,2.60
2022-12-03T16:24:41.309Z,2.55
2022-12-03T16:27:08.136Z,2.54
2022-12-03T16:29:34.869Z,2.54
2022-12-03T16:32:01.996Z,2.45
2022-12-03T16:34:28.534Z,2.48
2022-12-03T16:36:55.127Z,2.36
2022-12-03T16:39:21.640Z,2.43
2022-12-03T16:41:48.280Z,2.47
2022-12-03T16:44:14.799Z,2.25
2022-12-03T16:46:41.392Z,2.17
2022-12-03T16:49:08.246Z,2.37
2022-12-03T16:51:34.713Z,2.27
2022-12-03T16:54:01.182Z,2.12
2022-12-03T16:56:30.515Z,2.20
2022-12-03T16:58:57.128Z,2.23
2022-12-03T17:01:23.795Z,2.31
2022-12-03T17:03:51.096Z,2.13
2022-12-03T17:06:17.684Z,2.17
2022-12-03T17:08:49.427Z,2.25
2022-12-03T17:11:16.978Z,2.27
2022-12-03T17:13:43.827Z,2.12
2022-12-03T17:16:10.583Z,2.01
2022-12-03T17:18:37.302Z,1.96
2022-12-03T17:21:04.125Z,2.00
2022-12-03T17:23:31.812Z,2.09
2022-12-03T17:25:58.455Z,2.20
2022-12-03T17:28:25.008Z,2.22
2022-12-03T17:30:54.091Z,2.35
2022-12-03T17:33:20.725Z,2.49
2022-12-03T17:35:47.256Z,2.37
2022-12-03T17:38:13.760Z,2.28
2022-12-03T17:40:40.406Z,2.42
2022-12-03T17:43:28.236Z,2.32
2022-12-03T17:45:55.279Z,2.37
2022-12-03T17:48:21.840Z,2.55
2022-12-03T17:50:48.353Z,2.93
2022-12-03T17:53:14.861Z,2.74
2022-12-03T17:55:45.075Z,2.73
2022-12-03T17:58:11.889Z,2.76
2022-12-03T18:00:38.313Z,2.72
2022-12-03T18:03:04.800Z,2.70
2022-12-03T18:05:31.742Z,2.60
2022-12-03T18:07:58.418Z,2.65
2022-12-03T18:10:25.017Z,2.47
2022-12-03T18:12:51.545Z,2.55
2022-12-03T18:15:18.068Z,2.56
2022-12-03T18:17:44.611Z,2.69
2022-12-03T18:20:11.153Z,2.43
2022-12-03T18:22:37.782Z,2.35
2022-12-03T18:25:05.014Z,2.46
2022-12-03T18:27:31.564Z,2.51
2022-12-03T18:30:00.637Z,2.63
2022-12-03T18:32:29.375Z,2.50
2022-12-03T18:34:57.393Z,2.32
2022-12-03T18:37:27.230Z,2.26
2022-12-03T18:39:54.387Z,2.22
2022-12-03T18:42:22.584Z,2.19
2022-12-03T18:44:50.331Z,2.26
2022-12-03T18:47:19.291Z,2.21
2022-12-03T18:49:45.859Z,2.06
2022-12-03T18:52:13.777Z,2.13
2022-12-03T18:54:40.338Z,2.11
2022-12-03T18:57:06.896Z,2.21
2022-12-03T18:59:33.450Z,2.05
2022-12-03T19:02:00.040Z,2.19
2022-12-03T19:04:26.626Z,2.16
2022-12-03T19:06:53.442Z,2.17
2022-12-03T19:09:20.035Z,2.19
2022-12-03T19:11:46.655Z,2.30
2022-12-03T19:14:13.215Z,2.27
2022-12-03T19:16:40.754Z,2.43
2022-12-03T19:19:10.347Z,2.23
2022-12-03T19:21:39.266Z,2.26
2022-12-03T19:26:53.149Z,2.49
2022-12-03T19:29:19.752Z,2.42
2022-12-03T19:31:49.294Z,2.36
2022-12-03T19:34:15.910Z,2.25
2022-12-03T19:36:43.063Z,2.35
2022-12-03T19:39:09.742Z,2.30
2022-12-03T19:41:36.293Z,2.22
2022-12-03T19:44:07.753Z,2.36
2022-12-03T19:46:37.185Z,2.29
2022-12-03T19:49:03.729Z,2.34
2022-12-03T19:51:35.073Z,2.30
2022-12-03T19:54:06.133Z,2.36
2022-12-03T19:56:32.596Z,2.33
2022-12-03T19:58:59.277Z,2.26
2022-12-03T20:01:29.739Z,2.29
2022-12-03T20:03:57.637Z,2.31
2022-12-03T20:06:26.498Z,2.34
2022-12-03T20:08:57.981Z,2.39
2022-12-03T20:11:26.775Z,2.34
2022-12-03T20:13:55.881Z,2.41
2022-12-03T20:16:23.213Z,2.30
2022-12-03T20:18:50.218Z,2.22
2022-12-03T20:21:18.026Z,2.21
2022-12-03T20:23:45.151Z,2.18
2022-12-03T20:26:15.963Z,2.24
2022-12-03T20:28:42.754Z,2.25
2022-12-03T20:31:15.213Z,2.13
2022-12-03T20:33:48.235Z,2.21
2022-12-03T20:36:16.563Z,2.02
2022-12-03T20:38:49.486Z,2.05
2022-12-03T20:41:18.112Z,2.08
2022-12-03T20:43:45.427Z,2.14
2022-12-03T20:46:18.013Z,2.17
2022-12-03T20:48:45.391Z,2.36
2022-12-03T20:51:14.645Z,2.24
2022-12-03T20:53:41.845Z,2.21
2022-12-03T20:56:08.993Z,2.24
2022-12-03T20:58:36.324Z,2.30
2022-12-03T21:01:16.128Z,2.46
2022-12-03T21:03:43.652Z,2.44
2022-12-03T21:06:10.722Z,2.32
2022-12-03T21:08:42.381Z,2.26
2022-12-03T21:11:10.434Z,2.38
2022-12-03T21:13:36.992Z,2.40
2022-12-03T21:16:08.105Z,2.52
2022-12-03T21:18:35.031Z,2.56
2022-12-03T21:21:02.439Z,2.60
2022-12-03T21:23:29.890Z,2.61
2022-12-03T21:26:08.260Z,2.60
2022-12-03T21:28:34.783Z,2.70
2022-12-03T21:31:06.042Z,2.75
2022-12-03T21:33:33.159Z,2.63
2022-12-03T21:36:00.238Z,2.64
2022-12-03T21:38:27.696Z,2.64
2022-12-03T21:40:54.683Z,2.62
2022-12-03T21:43:24.796Z,2.71
2022-12-03T21:45:52.084Z,2.83
2022-12-03T21:48:19.332Z,2.88
2022-12-03T21:50:46.599Z,2.88
2022-12-03T21:53:15.702Z,2.93
2022-12-03T21:55:42.406Z,2.99
2022-12-03T21:58:08.904Z,2.89
2022-12-03T22:00:36.237Z,2.78
2022-12-03T22:03:02.814Z,2.76
2022-12-03T22:05:29.395Z,2.74
2022-12-03T22:07:56.350Z,2.83
2022-12-03T22:10:22.951Z,2.83
2022-12-03T22:12:49.685Z,2.82
2022-12-03T22:15:19.201Z,2.83
2022-12-03T22:17:46.762Z,2.90
2022-12-03T22:20:13.780Z,2.97
2022-12-03T22:22:40.326Z,2.95
2022-12-03T22:25:07.212Z,3.02
2022-12-03T22:27:33.816Z,2.98
2022-12-03T22:30:00.297Z,2.97
2022-12-03T22:32:26.936Z,2.81
2022-12-03T22:34:53.438Z,2.81
2022-12-03T22:37:20.098Z,3.15
2022-12-03T22:39:46.619Z,3.02
2022-12-03T22:42:15.351Z,2.90
2022-12-03T22:44:41.851Z,3.12
2022-12-03T22:47:08.508Z,3.16
2022-12-03T22:49:35.149Z,3.06
2022-12-03T22:52:02.835Z,2.81
2022-12-03T22:54:32.332Z,2.61
2022-12-03T22:56:58.793Z,2.84
2022-12-03T22:59:25.526Z,2.86
2022-12-03T23:01:52.037Z,2.67
2022-12-03T23:04:18.788Z,2.70
2022-12-03T23:06:45.501Z,2.58
2022-12-03T23:09:12.327Z,2.60
2022-12-03T23:11:38.948Z,2.45
2022-12-03T23:14:05.492Z,2.45
2022-12-03T23:16:32.750Z,2.77
2022-12-03T23:19:00.185Z,3.04
2022-12-03T23:21:30.208Z,3.04
2022-12-03T23:24:00.348Z,3.34
2022-12-03T23:26:27.195Z,3.17
2022-12-03T23:28:53.811Z,3.34
2022-12-03T23:31:29.004Z,3.29
2022-12-03T23:33:56.659Z,3.10
2022-12-03T23:36:25.439Z,3.01
2022-12-03T23:38:51.987Z,2.92
2022-12-03T23:41:20.373Z,2.78
2022-12-03T23:43:47.227Z,2.78
2022-12-03T23:46:16.191Z,2.95
2022-12-03T23:48:43.620Z,2.84
2022-12-03T23:51:12.589Z,2.86
2022-12-03T23:53:39.990Z,2.92
2022-12-03T23:56:14.626Z,2.85
2022-12-03T23:58:41.191Z,2.72
